createdAt,value
2022-12-14T00:00:53.463Z,-0.92
2022-12-14T00:01:53.367Z,-0.92
2022-12-14T00:02:53.538Z,-0.90
2022-12-14T00:03:53.433Z,-0.90
2022-12-14T00:04:53.312Z,-0.89
2022-12-14T00:05:53.361Z,-0.92
2022-12-14T00:06:53.317Z,-0.90
2022-12-14T00:07:53.285Z,-0.90
2022-12-14T00:08:53.296Z,-0.93
2022-12-14T00:09:53.253Z,-0.90
2022-12-14T00:10:53.341Z,-0.90
2022-12-14T00:11:53.234Z,-0.93
2022-12-14T00:12:53.236Z,-0.95
2022-12-14T00:13:53.239Z,-0.95
2022-12-14T00:14:53.202Z,-0.93
2022-12-14T00:15:53.327Z,-0.93
2022-12-14T00:16:53.162Z,-0.93
2022-12-14T00:17:53.197Z,-0.93
2022-12-14T00:18:53.170Z,-0.93
2022-12-14T00:19:53.152Z,-0.93
2022-12-14T00:20:53.888Z,-0.95
2022-12-14T00:21:53.111Z,-0.92
2022-12-14T00:22:53.126Z,-0.93
2022-12-14T00:23:54.055Z,-0.92
2022-12-14T00:24:53.107Z,-0.92
2022-12-14T00:25:53.077Z,-0.90
2022-12-14T00:26:53.050Z,-0.89
2022-12-14T00:27:53.062Z,-0.90
2022-12-14T00:28:53.018Z,-0.90
2022-12-14T00:29:53.017Z,-0.92
2022-12-14T00:30:58.151Z,-0.93
2022-12-14T00:31:54.013Z,-0.90
2022-12-14T00:32:52.992Z,-0.90
2022-12-14T00:33:52.956Z,-0.92
2022-12-14T00:34:52.960Z,-0.90
2022-12-14T00:35:52.946Z,-0.92
2022-12-14T00:36:52.931Z,-0.90
2022-12-14T00:37:52.941Z,-0.89
2022-12-14T00:38:52.889Z,-0.90
2022-12-14T00:39:52.886Z,-0.90
2022-12-14T00:40:52.894Z,-0.92
2022-12-14T00:41:52.854Z,-0.90
2022-12-14T00:42:52.827Z,-0.90
2022-12-14T00:43:52.860Z,-0.89
2022-12-14T00:44:52.824Z,-0.89
2022-12-14T00:45:52.849Z,-0.85
2022-12-14T00:46:52.865Z,-0.85
2022-12-14T00:47:52.792Z,-0.86
2022-12-14T00:48:52.772Z,-0.89
2022-12-14T00:49:52.781Z,-0.85
2022-12-14T00:50:52.759Z,-0.85
2022-12-14T00:51:52.758Z,-0.86
2022-12-14T00:52:52.710Z,-0.86
2022-12-14T00:53:52.709Z,-0.86
2022-12-14T00:54:52.705Z,-0.85
2022-12-14T00:55:52.704Z,-0.83
2022-12-14T00:56:52.683Z,-0.81
2022-12-14T00:57:52.677Z,-0.81
2022-12-14T00:58:52.637Z,-0.81
2022-12-14T00:59:52.620Z,-0.80
2022-12-14T01:00:52.618Z,-0.83
2022-12-14T01:01:52.834Z,-0.81
2022-12-14T01:02:52.618Z,-0.83
2022-12-14T01:03:52.667Z,-0.85
2022-12-14T01:04:52.554Z,-0.81
2022-12-14T01:05:52.593Z,-0.83
2022-12-14T01:07:01.639Z,-0.85
2022-12-14T01:07:53.547Z,-0.81
2022-12-14T01:08:52.584Z,-0.83
2022-12-14T01:09:52.543Z,-0.83
2022-12-14T01:10:52.541Z,-0.81
2022-12-14T01:11:52.481Z,-0.83
2022-12-14T01:12:53.503Z,-0.83
2022-12-14T01:13:52.500Z,-0.85
2022-12-14T01:14:52.452Z,-0.85
2022-12-14T01:15:52.549Z,-0.83
2022-12-14T01:16:52.394Z,-0.81
2022-12-14T01:17:52.443Z,-0.83
2022-12-14T01:18:52.421Z,-0.83
2022-12-14T01:19:52.405Z,-0.85
2022-12-14T01:20:52.383Z,-0.85
2022-12-14T01:21:52.340Z,-0.81
2022-12-14T01:22:52.366Z,-0.83
2022-12-14T01:23:52.348Z,-0.81
2022-12-14T01:24:52.321Z,-0.81
2022-12-14T01:25:52.314Z,-0.78
2022-12-14T01:26:52.324Z,-0.80
2022-12-14T01:27:52.301Z,-0.83
2022-12-14T01:28:52.269Z,-0.81
2022-12-14T01:29:52.241Z,-0.83
2022-12-14T01:30:52.354Z,-0.81
2022-12-14T01:31:52.267Z,-0.81
2022-12-14T01:32:52.237Z,-0.81
2022-12-14T01:33:52.216Z,-0.81
2022-12-14T01:34:52.233Z,-0.83
2022-12-14T01:35:52.190Z,-0.81
2022-12-14T01:36:52.159Z,-0.83
2022-12-14T01:37:52.205Z,-0.81
2022-12-14T01:38:52.138Z,-0.85
2022-12-14T01:39:52.116Z,-0.86
2022-12-14T01:40:52.128Z,-0.86
2022-12-14T01:41:52.134Z,-0.89
2022-12-14T01:42:52.123Z,-0.86
2022-12-14T01:43:52.084Z,-0.86
2022-12-14T01:44:52.077Z,-0.86
2022-12-14T01:45:52.137Z,-0.90
2022-12-14T01:46:52.095Z,-0.86
2022-12-14T01:47:52.003Z,-0.86
2022-12-14T01:48:52.041Z,-0.89
2022-12-14T01:49:52.005Z,-0.86
2022-12-14T01:50:52.031Z,-0.85
2022-12-14T01:51:51.979Z,-0.83
2022-12-14T01:52:51.965Z,-0.83
2022-12-14T01:53:51.953Z,-0.83
2022-12-14T01:54:51.957Z,-0.81
2022-12-14T01:55:51.933Z,-0.83
2022-12-14T01:56:51.961Z,-0.83
2022-12-14T01:57:51.903Z,-0.85
2022-12-14T01:58:51.906Z,-0.83
2022-12-14T01:59:51.854Z,-0.85
2022-12-14T02:00:51.869Z,-0.81
2022-12-14T02:01:51.925Z,-0.83
2022-12-14T02:02:51.990Z,-0.83
2022-12-14T02:03:51.840Z,-0.85
2022-12-14T02:04:51.869Z,-0.86
2022-12-14T02:05:51.785Z,-0.89
2022-12-14T02:06:56.441Z,-0.89
2022-12-14T02:07:52.828Z,-0.86
2022-12-14T02:08:51.760Z,-0.89
2022-12-14T02:09:51.759Z,-0.89
2022-12-14T02:10:51.750Z,-0.90
2022-12-14T02:11:51.806Z,-0.92
2022-12-14T02:12:51.701Z,-0.90
2022-12-14T02:13:51.717Z,-0.92
2022-12-14T02:14:51.721Z,-0.90
2022-12-14T02:15:51.730Z,-0.92
2022-12-14T02:16:51.691Z,-0.92
2022-12-14T02:17:51.685Z,-0.90
2022-12-14T02:18:51.674Z,-0.93
2022-12-14T02:19:51.635Z,-0.95
2022-12-14T02:20:51.652Z,-0.96
2022-12-14T02:21:51.653Z,-0.96
2022-12-14T02:22:51.598Z,-0.96
2022-12-14T02:23:51.564Z,-0.99
2022-12-14T02:24:51.565Z,-0.97
2022-12-14T02:25:51.553Z,-0.97
2022-12-14T02:26:51.545Z,-1.00
2022-12-14T02:27:51.560Z,-0.97
2022-12-14T02:28:51.543Z,-0.99
2022-12-14T02:29:51.473Z,-0.99
2022-12-14T02:30:51.509Z,-0.99
2022-12-14T02:31:51.500Z,-0.99
2022-12-14T02:32:51.497Z,-0.99
2022-12-14T02:33:51.445Z,-0.99
2022-12-14T02:34:51.459Z,-1.00
2022-12-14T02:35:51.413Z,-1.00
2022-12-14T02:36:51.457Z,-1.00
2022-12-14T02:37:51.420Z,-1.00
2022-12-14T02:38:51.445Z,-1.00
2022-12-14T02:39:51.384Z,-1.02
2022-12-14T02:40:51.385Z,-1.02
2022-12-14T02:41:51.350Z,-1.03
2022-12-14T02:42:51.340Z,-1.03
2022-12-14T02:43:51.312Z,-1.03
2022-12-14T02:44:51.320Z,-1.03
2022-12-14T02:45:51.317Z,-1.02
2022-12-14T02:46:51.372Z,-1.00
2022-12-14T02:47:51.314Z,-0.99
2022-12-14T02:48:51.284Z,-0.97
2022-12-14T02:49:51.266Z,-0.96
2022-12-14T02:50:51.273Z,-0.96
2022-12-14T02:51:51.234Z,-0.95
2022-12-14T02:52:51.264Z,-0.93
2022-12-14T02:53:51.194Z,-0.96
2022-12-14T02:54:51.190Z,-0.95
2022-12-14T02:55:51.155Z,-0.95
2022-12-14T02:56:51.160Z,-0.95
2022-12-14T02:57:51.173Z,-0.95
2022-12-14T02:58:51.165Z,-0.93
2022-12-14T02:59:51.152Z,-0.93
2022-12-14T03:00:51.181Z,-0.93
2022-12-14T03:01:51.124Z,-0.93
2022-12-14T03:02:51.181Z,-0.93
2022-12-14T03:03:51.111Z,-0.93
2022-12-14T03:04:51.078Z,-0.96
2022-12-14T03:05:51.052Z,-0.95
2022-12-14T03:06:51.067Z,-0.95
2022-12-14T03:07:51.004Z,-0.96
2022-12-14T03:08:51.029Z,-0.95
2022-12-14T03:09:50.980Z,-0.96
2022-12-14T03:10:50.998Z,-0.95
2022-12-14T03:11:50.949Z,-0.95
2022-12-14T03:12:50.961Z,-0.96
2022-12-14T03:13:50.949Z,-0.96
2022-12-14T03:14:50.932Z,-0.95
2022-12-14T03:15:51.018Z,-0.93
2022-12-14T03:16:50.937Z,-0.93
2022-12-14T03:17:50.949Z,-0.93
2022-12-14T03:18:50.905Z,-0.93
2022-12-14T03:19:50.850Z,-0.95
2022-12-14T03:20:50.852Z,-0.95
2022-12-14T03:21:50.843Z,-0.96
2022-12-14T03:22:50.841Z,-0.96
2022-12-14T03:23:50.803Z,-0.95
2022-12-14T03:24:50.823Z,-0.96
2022-12-14T03:25:50.796Z,-0.95
2022-12-14T03:26:50.805Z,-0.97
2022-12-14T03:27:50.766Z,-0.96
2022-12-14T03:28:50.750Z,-0.96
2022-12-14T03:29:50.748Z,-0.96
2022-12-14T03:31:06.216Z,-0.95
2022-12-14T03:31:51.746Z,-0.96
2022-12-14T03:32:50.706Z,-0.97
2022-12-14T03:33:50.696Z,-0.97
2022-12-14T03:34:50.692Z,-0.97
2022-12-14T03:35:50.646Z,-0.97
2022-12-14T03:36:50.654Z,-0.99
2022-12-14T03:37:53.242Z,-0.99
2022-12-14T03:38:50.641Z,-0.99
2022-12-14T03:39:50.627Z,-0.99
2022-12-14T03:40:50.631Z,-0.97
2022-12-14T03:41:50.611Z,-0.97
2022-12-14T03:42:50.629Z,-0.99
2022-12-14T03:43:50.570Z,-0.97
2022-12-14T03:44:50.591Z,-0.97
2022-12-14T03:45:50.658Z,-1.00
2022-12-14T03:46:50.569Z,-1.02
2022-12-14T03:47:50.535Z,-1.02
2022-12-14T03:48:50.501Z,-1.02
2022-12-14T03:49:50.499Z,-1.05
2022-12-14T03:50:50.475Z,-1.07
2022-12-14T03:51:50.440Z,-1.07
2022-12-14T03:52:50.510Z,-1.08
2022-12-14T03:53:50.420Z,-1.07
2022-12-14T03:54:50.451Z,-1.07
2022-12-14T03:55:50.409Z,-1.07
2022-12-14T03:56:53.197Z,-1.05
2022-12-14T03:57:50.376Z,-1.03
2022-12-14T03:58:56.794Z,-1.03
2022-12-14T03:59:51.365Z,-1.03
2022-12-14T04:00:50.446Z,-1.03
2022-12-14T04:01:50.461Z,-1.03
2022-12-14T04:02:50.478Z,-1.05
2022-12-14T04:03:50.336Z,-1.03
2022-12-14T04:04:50.299Z,-1.03
2022-12-14T04:05:50.293Z,-1.03
2022-12-14T04:06:50.299Z,-1.02
2022-12-14T04:07:50.318Z,-1.02
2022-12-14T04:08:50.238Z,-1.00
2022-12-14T04:09:50.242Z,-1.00
2022-12-14T04:10:50.243Z,-1.00
2022-12-14T04:11:50.198Z,-0.99
2022-12-14T04:12:51.666Z,-0.99
2022-12-14T04:13:50.166Z,-0.97
2022-12-14T04:14:50.179Z,-0.96
2022-12-14T04:15:50.165Z,-0.96
2022-12-14T04:16:50.198Z,-0.95
2022-12-14T04:17:50.134Z,-0.93
2022-12-14T04:18:53.189Z,-0.92
2022-12-14T04:19:51.102Z,-0.93
2022-12-14T04:20:50.132Z,-0.92
2022-12-14T04:21:50.105Z,-0.92
2022-12-14T04:22:50.116Z,-0.92
2022-12-14T04:23:50.076Z,-0.93
2022-12-14T04:24:50.041Z,-0.93
2022-12-14T04:25:50.015Z,-0.92
2022-12-14T04:26:50.019Z,-0.92
2022-12-14T04:27:50.013Z,-0.93
2022-12-14T04:28:50.030Z,-0.93
2022-12-14T04:29:49.987Z,-0.92
2022-12-14T04:30:50.007Z,-0.92
2022-12-14T04:31:50.014Z,-0.93
2022-12-14T04:32:50.034Z,-0.93
2022-12-14T04:33:49.938Z,-0.93
2022-12-14T04:34:49.919Z,-0.92
2022-12-14T04:35:49.886Z,-0.92
2022-12-14T04:36:49.907Z,-0.92
2022-12-14T04:37:49.899Z,-0.92
2022-12-14T04:38:49.890Z,-0.92
2022-12-14T04:39:49.861Z,-0.92
2022-12-14T04:40:49.867Z,-0.93
2022-12-14T04:41:49.835Z,-0.93
2022-12-14T04:42:49.852Z,-0.92
2022-12-14T04:43:49.786Z,-0.93
2022-12-14T04:44:49.810Z,-0.92
2022-12-14T04:45:49.781Z,-0.92
2022-12-14T04:46:49.771Z,-0.93
2022-12-14T04:47:49.745Z,-0.95
2022-12-14T04:48:49.762Z,-0.96
2022-12-14T04:49:49.743Z,-0.95
2022-12-14T04:50:49.712Z,-0.93
2022-12-14T04:51:49.684Z,-0.93
2022-12-14T04:52:49.719Z,-0.95
2022-12-14T04:53:49.672Z,-0.93
2022-12-14T04:54:49.672Z,-0.93
2022-12-14T04:55:49.659Z,-0.96
2022-12-14T04:56:49.668Z,-0.95
2022-12-14T04:57:49.633Z,-0.96
2022-12-14T04:58:49.613Z,-0.92
2022-12-14T04:59:49.583Z,-0.95
2022-12-14T05:00:49.676Z,-0.93
2022-12-14T05:01:49.705Z,-0.93
2022-12-14T05:02:49.624Z,-0.92
2022-12-14T05:03:49.582Z,-0.95
2022-12-14T05:04:49.542Z,-0.92
2022-12-14T05:05:49.510Z,-0.92
2022-12-14T05:06:49.520Z,-0.90
2022-12-14T05:07:49.511Z,-0.90
2022-12-14T05:08:49.488Z,-0.90
2022-12-14T05:09:49.500Z,-0.90
2022-12-14T05:10:49.483Z,-0.90
2022-12-14T05:11:53.644Z,-0.92
2022-12-14T05:12:50.472Z,-0.92
2022-12-14T05:13:49.443Z,-0.92
2022-12-14T05:14:49.446Z,-0.90
2022-12-14T05:15:49.389Z,-0.90
2022-12-14T05:16:49.481Z,-0.92
2022-12-14T05:17:49.384Z,-0.90
2022-12-14T05:18:49.377Z,-0.93
2022-12-14T05:19:49.354Z,-0.95
2022-12-14T05:20:49.334Z,-0.93
2022-12-14T05:21:49.373Z,-0.95
2022-12-14T05:22:49.332Z,-0.92
2022-12-14T05:23:49.293Z,-0.90
2022-12-14T05:24:49.275Z,-0.89
2022-12-14T05:25:49.356Z,-0.86
2022-12-14T05:26:49.254Z,-0.81
2022-12-14T05:27:49.240Z,-0.81
2022-12-14T05:28:50.620Z,-0.80
2022-12-14T05:29:49.234Z,-0.81
2022-12-14T05:30:49.421Z,-0.81
2022-12-14T05:31:49.836Z,-0.80
2022-12-14T05:32:49.209Z,-0.81
2022-12-14T05:33:49.201Z,-0.83
2022-12-14T05:34:49.169Z,-0.85
2022-12-14T05:35:49.141Z,-0.83
2022-12-14T05:36:49.132Z,-0.85
2022-12-14T05:37:49.418Z,-0.83
2022-12-14T05:38:49.122Z,-0.83
2022-12-14T05:39:49.114Z,-0.83
2022-12-14T05:40:49.105Z,-0.83
2022-12-14T05:41:49.077Z,-0.85
2022-12-14T05:42:55.237Z,-0.85
2022-12-14T05:43:50.088Z,-0.85
2022-12-14T05:44:49.019Z,-0.86
2022-12-14T05:45:49.114Z,-0.86
2022-12-14T05:46:49.022Z,-0.85
2022-12-14T05:47:48.990Z,-0.85
2022-12-14T05:48:49.669Z,-0.86
2022-12-14T05:49:49.312Z,-0.86
2022-12-14T05:50:48.974Z,-0.89
2022-12-14T05:51:48.938Z,-0.85
2022-12-14T05:52:48.941Z,-0.86
2022-12-14T05:53:48.931Z,-0.85
2022-12-14T05:54:48.924Z,-0.85
2022-12-14T05:55:49.108Z,-0.85
2022-12-14T05:56:48.883Z,-0.85
2022-12-14T05:57:48.910Z,-0.86
2022-12-14T05:58:48.866Z,-0.85
2022-12-14T05:59:48.891Z,-0.85
2022-12-14T06:00:48.838Z,-0.83
2022-12-14T06:01:49.072Z,-0.81
2022-12-14T06:02:48.853Z,-0.83
2022-12-14T06:03:48.813Z,-0.81
2022-12-14T06:04:48.873Z,-0.83
2022-12-14T06:05:48.790Z,-0.86
2022-12-14T06:06:48.779Z,-0.85
2022-12-14T06:07:48.776Z,-0.81
2022-12-14T06:08:48.725Z,-0.83
2022-12-14T06:09:48.713Z,-0.83
2022-12-14T06:10:48.711Z,-0.83
2022-12-14T06:11:48.690Z,-0.83
2022-12-14T06:12:48.688Z,-0.85
2022-12-14T06:13:48.690Z,-0.85
2022-12-14T06:14:48.680Z,-0.85
2022-12-14T06:15:48.677Z,-0.83
2022-12-14T06:16:48.648Z,-0.83
2022-12-14T06:17:48.611Z,-0.83
2022-12-14T06:18:48.602Z,-0.83
2022-12-14T06:19:49.756Z,-0.81
2022-12-14T06:20:48.567Z,-0.83
2022-12-14T06:21:48.559Z,-0.81
2022-12-14T06:22:48.576Z,-0.85
2022-12-14T06:23:48.550Z,-0.85
2022-12-14T06:24:48.531Z,-0.81
2022-12-14T06:25:48.545Z,-0.85
2022-12-14T06:26:48.504Z,-0.85
2022-12-14T06:27:48.485Z,-0.83
2022-12-14T06:28:48.484Z,-0.83
2022-12-14T06:29:48.468Z,-0.85
2022-12-14T06:30:48.531Z,-0.85
2022-12-14T06:31:49.475Z,-0.85
2022-12-14T06:32:48.421Z,-0.86
2022-12-14T06:33:48.425Z,-0.86
2022-12-14T06:34:48.415Z,-0.86
2022-12-14T06:35:48.421Z,-0.86
2022-12-14T06:36:48.390Z,-0.85
2022-12-14T06:37:48.981Z,-0.83
2022-12-14T06:38:48.365Z,-0.83
2022-12-14T06:39:53.906Z,-0.83
2022-12-14T06:40:49.347Z,-0.83
2022-12-14T06:41:48.312Z,-0.85
2022-12-14T06:42:48.309Z,-0.86
2022-12-14T06:43:49.292Z,-0.85
2022-12-14T06:44:48.291Z,-0.83
2022-12-14T06:45:48.266Z,-0.83
2022-12-14T06:46:48.293Z,-0.83
2022-12-14T06:47:48.241Z,-0.81
2022-12-14T06:48:48.256Z,-0.83
2022-12-14T06:49:48.237Z,-0.85
2022-12-14T06:50:48.189Z,-0.85
2022-12-14T06:51:48.216Z,-0.83
2022-12-14T06:52:48.160Z,-0.83
2022-12-14T06:53:48.205Z,-0.85
2022-12-14T06:54:48.163Z,-0.86
2022-12-14T06:55:49.302Z,-0.85
2022-12-14T06:56:48.138Z,-0.85
2022-12-14T06:57:48.135Z,-0.85
2022-12-14T06:58:48.134Z,-0.89
2022-12-14T06:59:48.111Z,-0.89
2022-12-14T07:00:48.090Z,-0.86
2022-12-14T07:01:49.998Z,-0.86
2022-12-14T07:02:48.192Z,-0.86
2022-12-14T07:03:48.167Z,-0.86
2022-12-14T07:04:48.016Z,-0.85
2022-12-14T07:05:49.196Z,-0.86
2022-12-14T07:06:48.013Z,-0.85
2022-12-14T07:07:48.267Z,-0.85
2022-12-14T07:08:47.975Z,-0.86
2022-12-14T07:09:48.023Z,-0.85
2022-12-14T07:11:00.555Z,-0.85
2022-12-14T07:11:48.954Z,-0.85
2022-12-14T07:12:47.933Z,-0.81
2022-12-14T07:13:48.957Z,-0.83
2022-12-14T07:14:47.895Z,-0.80
2022-12-14T07:15:47.925Z,-0.80
2022-12-14T07:16:48.894Z,-0.80
2022-12-14T07:17:47.884Z,-0.80
2022-12-14T07:18:47.854Z,-0.80
2022-12-14T07:19:49.145Z,-0.78
2022-12-14T07:20:47.842Z,-0.80
2022-12-14T07:21:47.830Z,-0.80
2022-12-14T07:22:49.285Z,-0.78
2022-12-14T07:23:47.783Z,-0.80
2022-12-14T07:24:47.804Z,-0.78
2022-12-14T07:25:47.785Z,-0.77
2022-12-14T07:26:47.769Z,-0.77
2022-12-14T07:27:47.743Z,-0.77
2022-12-14T07:28:47.811Z,-0.77
2022-12-14T07:29:47.743Z,-0.74
2022-12-14T07:30:47.752Z,-0.73
2022-12-14T07:31:49.567Z,-0.74
2022-12-14T07:32:47.685Z,-0.76
2022-12-14T07:33:47.685Z,-0.76
2022-12-14T07:34:47.631Z,-0.74
2022-12-14T07:35:47.665Z,-0.76
2022-12-14T07:36:47.608Z,-0.77
2022-12-14T07:37:49.413Z,-0.76
2022-12-14T07:38:47.571Z,-0.76
2022-12-14T07:39:47.600Z,-0.76
2022-12-14T07:40:47.555Z,-0.76
2022-12-14T07:41:47.567Z,-0.73
2022-12-14T07:42:47.557Z,-0.73
2022-12-14T07:43:49.589Z,-0.73
2022-12-14T07:44:47.535Z,-0.73
2022-12-14T07:45:47.511Z,-0.73
2022-12-14T07:46:47.551Z,-0.71
2022-12-14T07:47:47.509Z,-0.73
2022-12-14T07:48:47.496Z,-0.73
2022-12-14T07:49:47.751Z,-0.73
2022-12-14T07:50:47.454Z,-0.71
2022-12-14T07:51:47.467Z,-0.71
2022-12-14T07:52:47.434Z,-0.71
2022-12-14T07:53:47.397Z,-0.70
2022-12-14T07:54:47.440Z,-0.70
2022-12-14T07:55:47.412Z,-0.70
2022-12-14T07:56:47.345Z,-0.71
2022-12-14T07:57:47.379Z,-0.68
2022-12-14T07:58:47.338Z,-0.68
2022-12-14T07:59:47.343Z,-0.68
2022-12-14T08:00:47.320Z,-0.67
2022-12-14T08:01:47.399Z,-0.67
2022-12-14T08:02:47.329Z,-0.65
2022-12-14T08:03:47.303Z,-0.63
2022-12-14T08:04:47.280Z,-0.63
2022-12-14T08:05:47.286Z,-0.62
2022-12-14T08:06:47.232Z,-0.60
2022-12-14T08:07:47.254Z,-0.59
2022-12-14T08:08:47.229Z,-0.60
2022-12-14T08:09:47.264Z,-0.60
2022-12-14T08:10:47.181Z,-0.59
2022-12-14T08:11:48.031Z,-0.58
2022-12-14T08:12:47.176Z,-0.59
2022-12-14T08:13:47.177Z,-0.58
2022-12-14T08:14:47.144Z,-0.58
2022-12-14T08:15:47.209Z,-0.56
2022-12-14T08:16:47.131Z,-0.56
2022-12-14T08:17:47.118Z,-0.56
2022-12-14T08:18:47.105Z,-0.56
2022-12-14T08:19:47.124Z,-0.56
2022-12-14T08:20:52.875Z,-0.55
2022-12-14T08:21:48.065Z,-0.56
2022-12-14T08:22:47.030Z,-0.53
2022-12-14T08:23:47.045Z,-0.52
2022-12-14T08:24:49.467Z,-0.50
2022-12-14T08:25:47.045Z,-0.52
2022-12-14T08:26:48.983Z,-0.50
2022-12-14T08:27:47.006Z,-0.52
2022-12-14T08:28:47.641Z,-0.50
2022-12-14T08:29:47.022Z,-0.49
2022-12-14T08:30:46.915Z,-0.49
2022-12-14T08:31:47.067Z,-0.49
2022-12-14T08:32:46.960Z,-0.52
2022-12-14T08:33:46.895Z,-0.49
2022-12-14T08:34:46.910Z,-0.47
2022-12-14T08:35:46.947Z,-0.49
2022-12-14T08:36:46.861Z,-0.47
2022-12-14T08:37:47.746Z,-0.47
2022-12-14T08:38:46.833Z,-0.45
2022-12-14T08:39:49.451Z,-0.47
2022-12-14T08:40:46.823Z,-0.49
2022-12-14T08:41:46.805Z,-0.47
2022-12-14T08:42:46.840Z,-0.45
2022-12-14T08:43:46.799Z,-0.44
2022-12-14T08:44:46.761Z,-0.45
2022-12-14T08:45:46.761Z,-0.44
2022-12-14T08:46:46.898Z,-0.42
2022-12-14T08:47:46.748Z,-0.41
2022-12-14T08:48:46.697Z,-0.42
2022-12-14T08:49:46.724Z,-0.41
2022-12-14T08:50:46.660Z,-0.41
2022-12-14T08:51:46.677Z,-0.41
2022-12-14T08:52:46.669Z,-0.39
2022-12-14T08:53:46.677Z,-0.39
2022-12-14T08:54:46.662Z,-0.38
2022-12-14T08:55:46.618Z,-0.38
2022-12-14T08:56:46.644Z,-0.38
2022-12-14T08:57:46.627Z,-0.39
2022-12-14T08:58:46.610Z,-0.41
2022-12-14T09:00:02.765Z,-0.38
2022-12-14T09:00:47.576Z,-0.38
2022-12-14T09:01:46.786Z,-0.39
2022-12-14T09:02:46.613Z,-0.38
2022-12-14T09:03:46.812Z,-0.38
2022-12-14T09:04:46.559Z,-0.37
2022-12-14T09:05:46.522Z,-0.37
2022-12-14T09:06:46.502Z,-0.35
2022-12-14T09:07:46.470Z,-0.35
2022-12-14T09:08:47.238Z,-0.34
2022-12-14T09:09:46.471Z,-0.34
2022-12-14T09:10:46.441Z,-0.31
2022-12-14T09:11:46.426Z,-0.32
2022-12-14T09:12:46.440Z,-0.27
2022-12-14T09:13:46.392Z,-0.30
2022-12-14T09:14:46.373Z,-0.27
2022-12-14T09:15:46.394Z,-0.26
2022-12-14T09:16:46.373Z,-0.24
2022-12-14T09:17:46.344Z,-0.23
2022-12-14T09:18:46.351Z,-0.23
2022-12-14T09:19:46.343Z,-0.23
2022-12-14T09:20:46.336Z,-0.21
2022-12-14T09:21:46.401Z,-0.20
2022-12-14T09:22:46.295Z,-0.23
2022-12-14T09:23:46.260Z,-0.21
2022-12-14T09:24:46.295Z,-0.23
2022-12-14T09:25:46.239Z,-0.23
2022-12-14T09:26:47.101Z,-0.23
2022-12-14T09:27:46.316Z,-0.24
2022-12-14T09:28:46.214Z,-0.24
2022-12-14T09:29:46.198Z,-0.24
2022-12-14T09:30:46.194Z,-0.23
2022-12-14T09:31:46.245Z,-0.24
2022-12-14T09:32:46.177Z,-0.24
2022-12-14T09:33:46.165Z,-0.23
2022-12-14T09:34:47.083Z,-0.23
2022-12-14T09:35:46.175Z,-0.20
2022-12-14T09:36:46.111Z,-0.21
2022-12-14T09:37:46.149Z,-0.20
2022-12-14T09:38:50.867Z,-0.20
2022-12-14T09:39:47.075Z,-0.17
2022-12-14T09:40:46.085Z,-0.16
2022-12-14T09:41:46.093Z,-0.13
2022-12-14T09:42:50.668Z,-0.14
2022-12-14T09:43:47.005Z,-0.13
2022-12-14T09:44:45.996Z,-0.12
2022-12-14T09:45:46.023Z,-0.09
2022-12-14T09:46:45.979Z,-0.12
2022-12-14T09:47:45.981Z,-0.13
2022-12-14T09:48:45.979Z,-0.13
2022-12-14T09:49:45.950Z,-0.13
2022-12-14T09:50:45.942Z,-0.12
2022-12-14T09:51:45.921Z,-0.12
2022-12-14T09:52:45.893Z,-0.09
2022-12-14T09:53:45.886Z,-0.09
2022-12-14T09:54:45.919Z,-0.09
2022-12-14T09:55:45.900Z,-0.08
2022-12-14T09:56:45.939Z,-0.08
2022-12-14T09:57:45.884Z,-0.06
2022-12-14T09:58:45.862Z,-0.05
2022-12-14T09:59:45.789Z,-0.03
2022-12-14T10:00:52.940Z,-0.02
2022-12-14T10:01:55.535Z,-0.01
2022-12-14T10:02:47.248Z,-0.01
2022-12-14T10:03:46.090Z,-0.01
2022-12-14T10:04:47.775Z,0.01
2022-12-14T10:05:45.785Z,-0.02
2022-12-14T10:06:45.787Z,0.01
2022-12-14T10:07:45.773Z,0.02
2022-12-14T10:08:50.996Z,0.02
2022-12-14T10:09:46.656Z,0.02
2022-12-14T10:10:45.693Z,0.04
2022-12-14T10:11:45.658Z,0.02
2022-12-14T10:12:45.676Z,0.02
2022-12-14T10:13:45.685Z,0.02
2022-12-14T10:14:45.765Z,0.02
2022-12-14T10:15:45.616Z,0.02
2022-12-14T10:16:51.489Z,0.02
2022-12-14T10:17:46.585Z,0.01
2022-12-14T10:19:02.623Z,0.01
2022-12-14T10:19:46.564Z,0.01
2022-12-14T10:20:45.544Z,0.01
2022-12-14T10:21:45.526Z,-0.02
2022-12-14T10:22:45.551Z,-0.01
2022-12-14T10:23:45.608Z,-0.01
2022-12-14T10:24:45.495Z,-0.01
2022-12-14T10:25:45.501Z,-0.01
2022-12-14T10:26:45.504Z,0.01
2022-12-14T10:28:09.780Z,0.01
2022-12-14T10:28:46.515Z,0.02
2022-12-14T10:29:45.459Z,0.01
2022-12-14T10:30:45.452Z,0.01
2022-12-14T10:31:45.489Z,0.04
2022-12-14T10:32:45.399Z,0.02
2022-12-14T10:33:45.380Z,0.02
2022-12-14T10:34:45.380Z,0.01
2022-12-14T10:35:45.358Z,0.02
2022-12-14T10:36:45.396Z,-0.01
2022-12-14T10:37:45.320Z,0.01
2022-12-14T10:38:45.319Z,-0.01
2022-12-14T10:39:49.593Z,0.01
2022-12-14T10:40:45.289Z,0.01
2022-12-14T10:41:49.690Z,0.01
2022-12-14T10:42:47.421Z,0.01
2022-12-14T10:43:45.275Z,0.01
2022-12-14T10:44:51.498Z,0.01
2022-12-14T10:45:46.272Z,0.01
2022-12-14T10:46:45.303Z,0.02
2022-12-14T10:47:45.187Z,0.01
2022-12-14T10:48:45.197Z,-0.01
2022-12-14T10:49:45.207Z,-0.01
2022-12-14T10:50:49.946Z,0.01
2022-12-14T10:51:46.148Z,0.01
2022-12-14T10:52:45.166Z,0.01
2022-12-14T10:53:45.141Z,-0.01
2022-12-14T10:54:45.321Z,0.01
2022-12-14T10:55:45.155Z,-0.01
2022-12-14T10:56:49.660Z,0.01
2022-12-14T10:57:46.065Z,0.01
2022-12-14T10:58:45.089Z,-0.01
2022-12-14T11:00:03.612Z,0.02
2022-12-14T11:00:46.121Z,0.01
2022-12-14T11:01:45.148Z,0.01
2022-12-14T11:02:45.104Z,0.02
2022-12-14T11:03:46.029Z,0.01
2022-12-14T11:04:44.991Z,-0.01
2022-12-14T11:05:44.977Z,-0.01
2022-12-14T11:06:44.979Z,0.01
2022-12-14T11:07:44.947Z,0.01
2022-12-14T11:08:48.261Z,0.01
2022-12-14T11:09:44.948Z,0.02
2022-12-14T11:10:44.931Z,0.01
2022-12-14T11:11:45.038Z,-0.01
2022-12-14T11:12:45.039Z,0.01
2022-12-14T11:13:44.885Z,0.01
2022-12-14T11:14:44.874Z,0.02
2022-12-14T11:15:44.839Z,0.02
2022-12-14T11:16:45.049Z,0.02
2022-12-14T11:17:44.976Z,0.02
2022-12-14T11:18:44.846Z,0.02
2022-12-14T11:19:44.815Z,0.02
2022-12-14T11:20:44.788Z,0.01
2022-12-14T11:21:44.776Z,0.04
2022-12-14T11:22:44.769Z,0.07
2022-12-14T11:23:44.758Z,0.04
2022-12-14T11:24:44.747Z,0.05
2022-12-14T11:25:44.738Z,0.05
2022-12-14T11:26:44.753Z,0.07
2022-12-14T11:27:44.712Z,0.08
2022-12-14T11:28:46.017Z,0.07
2022-12-14T11:29:44.681Z,0.07
2022-12-14T11:30:44.731Z,0.07
2022-12-14T11:31:44.665Z,0.08
2022-12-14T11:32:44.815Z,0.08
2022-12-14T11:33:44.652Z,0.07
2022-12-14T11:34:45.614Z,0.08
2022-12-14T11:35:44.627Z,0.08
2022-12-14T11:36:44.594Z,0.08
2022-12-14T11:37:44.599Z,0.08
2022-12-14T11:38:44.592Z,0.10
2022-12-14T11:39:44.567Z,0.12
2022-12-14T11:40:44.575Z,0.10
2022-12-14T11:41:44.581Z,0.12
2022-12-14T11:42:44.567Z,0.10
2022-12-14T11:43:44.536Z,0.13
2022-12-14T11:44:44.534Z,0.13
2022-12-14T11:45:44.506Z,0.12
2022-12-14T11:46:45.648Z,0.10
2022-12-14T11:47:44.488Z,0.12
2022-12-14T11:48:44.480Z,0.13
2022-12-14T11:49:44.438Z,0.10
2022-12-14T11:50:44.414Z,0.10
2022-12-14T11:51:44.406Z,0.08
2022-12-14T11:52:44.430Z,0.07
2022-12-14T11:53:44.389Z,0.07
2022-12-14T11:54:45.964Z,0.08
2022-12-14T11:55:45.331Z,0.10
2022-12-14T11:56:44.387Z,0.10
2022-12-14T11:57:44.365Z,0.12
2022-12-14T11:58:44.317Z,0.12
2022-12-14T11:59:44.298Z,0.16
2022-12-14T12:00:47.158Z,0.17
2022-12-14T12:01:44.282Z,0.17
2022-12-14T12:02:44.294Z,0.17
2022-12-14T12:03:44.351Z,0.17
2022-12-14T12:04:44.250Z,0.17
2022-12-14T12:05:44.277Z,0.17
2022-12-14T12:06:44.264Z,0.19
2022-12-14T12:07:44.242Z,0.17
2022-12-14T12:08:44.233Z,0.19
2022-12-14T12:09:44.181Z,0.20
2022-12-14T12:10:44.187Z,0.22
2022-12-14T12:11:45.161Z,0.23
2022-12-14T12:12:47.949Z,0.23
2022-12-14T12:13:45.168Z,0.23
2022-12-14T12:14:44.137Z,0.25
2022-12-14T12:15:50.056Z,0.23
2022-12-14T12:16:45.085Z,0.23
2022-12-14T12:17:44.077Z,0.22
2022-12-14T12:18:46.522Z,0.20
2022-12-14T12:19:44.059Z,0.22
2022-12-14T12:20:44.029Z,0.20
2022-12-14T12:21:44.063Z,0.19
2022-12-14T12:22:44.002Z,0.20
2022-12-14T12:23:43.978Z,0.20
2022-12-14T12:25:08.319Z,0.22
2022-12-14T12:25:45.041Z,0.23
2022-12-14T12:26:43.949Z,0.23
2022-12-14T12:27:44.947Z,0.23
2022-12-14T12:28:43.931Z,0.26
2022-12-14T12:29:43.959Z,0.26
2022-12-14T12:30:44.040Z,0.26
2022-12-14T12:31:43.938Z,0.26
2022-12-14T12:32:43.939Z,0.28
2022-12-14T12:33:44.924Z,0.30
2022-12-14T12:34:43.870Z,0.30
2022-12-14T12:35:43.899Z,0.31
2022-12-14T12:37:02.838Z,0.33
2022-12-14T12:37:44.804Z,0.33
2022-12-14T12:38:43.833Z,0.34
2022-12-14T12:39:44.849Z,0.33
2022-12-14T12:40:43.906Z,0.33
2022-12-14T12:41:43.792Z,0.34
2022-12-14T12:42:43.793Z,0.33
2022-12-14T12:43:43.748Z,0.33
2022-12-14T12:44:44.726Z,0.30
2022-12-14T12:45:44.751Z,0.31
2022-12-14T12:47:06.901Z,0.31
2022-12-14T12:47:47.540Z,0.31
2022-12-14T12:48:43.683Z,0.33
2022-12-14T12:49:43.643Z,0.34
2022-12-14T12:50:43.726Z,0.34
2022-12-14T12:51:44.659Z,0.35
2022-12-14T12:52:43.659Z,0.37
2022-12-14T12:53:43.601Z,0.35
2022-12-14T12:54:43.593Z,0.35
2022-12-14T12:55:43.617Z,0.35
2022-12-14T12:56:43.617Z,0.34
2022-12-14T12:57:43.598Z,0.33